sensor_id;sensor_type;location;lat;lon;timestamp;temperature;humidity
46652;DHT22;32377;52.182;5.398;2023-09-12T00:00:08;19.10;99.90
46652;DHT22;32377;52.182;5.398;2023-09-12T00:02:35;19.10;99.90
46652;DHT22;32377;52.182;5.398;2023-09-12T00:05:01;19.00;99.90
46652;DHT22;32377;52.182;5.398;2023-09-12T00:07:27;19.10;99.90
46652;DHT22;32377;52.182;5.398;2023-09-12T00:09:52;19.00;99.90
46652;DHT22;32377;52.182;5.398;2023-09-12T00:12:22;19.00;99.90
46652;DHT22;32377;52.182;5.398;2023-09-12T00:14:49;19.10;99.90
46652;DHT22;32377;52.182;5.398;2023-09-12T00:17:15;19.00;99.90
46652;DHT22;32377;52.182;5.398;2023-09-12T00:19:40;19.00;99.90
46652;DHT22;32377;52.182;5.398;2023-09-12T00:22:07;18.90;99.90
46652;DHT22;32377;52.182;5.398;2023-09-12T00:24:33;18.90;99.90
46652;DHT22;32377;52.182;5.398;2023-09-12T00:26:58;18.90;99.90
46652;DHT22;32377;52.182;5.398;2023-09-12T00:29:24;18.80;99.90
46652;DHT22;32377;52.182;5.398;2023-09-12T00:31:50;18.90;99.90
46652;DHT22;32377;52.182;5.398;2023-09-12T00:34:18;18.80;99.90
46652;DHT22;32377;52.182;5.398;2023-09-12T00:36:44;18.90;99.90
46652;DHT22;32377;52.182;5.398;2023-09-12T00:39:09;18.90;99.90
46652;DHT22;32377;52.182;5.398;2023-09-12T00:41:35;18.80;99.90
46652;DHT22;32377;52.182;5.398;2023-09-12T00:44:01;18.80;99.90
46652;DHT22;32377;52.182;5.398;2023-09-12T00:46:27;18.80;99.90
46652;DHT22;32377;52.182;5.398;2023-09-12T00:48:54;18.70;99.90
46652;DHT22;32377;52.182;5.398;2023-09-12T00:51:21;18.70;99.90
46652;DHT22;32377;52.182;5.398;2023-09-12T00:53:49;18.60;99.90
46652;DHT22;32377;52.182;5.398;2023-09-12T00:56:15;18.50;99.90
46652;DHT22;32377;52.182;5.398;2023-09-12T00:58:41;18.50;99.90
46652;DHT22;32377;52.182;5.398;2023-09-12T01:01:07;18.50;99.90
46652;DHT22;32377;52.182;5.398;2023-09-12T01:03:32;18.40;99.90
46652;DHT22;32377;52.182;5.398;2023-09-12T01:06:00;18.40;99.90
46652;DHT22;32377;52.182;5.398;2023-09-12T01:08:26;18.40;99.90
46652;DHT22;32377;52.182;5.398;2023-09-12T01:10:52;18.40;99.90
46652;DHT22;32377;52.182;5.398;2023-09-12T01:13:20;18.50;99.90
46652;DHT22;32377;52.182;5.398;2023-09-12T01:15:46;18.40;99.90
46652;DHT22;32377;52.182;5.398;2023-09-12T01:18:12;18.40;99.90
46652;DHT22;32377;52.182;5.398;2023-09-12T01:20:39;18.40;99.90
46652;DHT22;32377;52.182;5.398;2023-09-12T01:28:24;18.20;99.90
46652;DHT22;32377;52.182;5.398;2023-09-12T01:30:51;18.20;99.90
46652;DHT22;32377;52.182;5.398;2023-09-12T01:33:17;18.30;99.90
46652;DHT22;32377;52.182;5.398;2023-09-12T01:35:43;18.20;99.90
46652;DHT22;32377;52.182;5.398;2023-09-12T01:38:09;18.20;99.90
46652;DHT22;32377;52.182;5.398;2023-09-12T01:40:42;18.30;99.90
46652;DHT22;32377;52.182;5.398;2023-09-12T01:43:09;18.20;99.90
46652;DHT22;32377;52.182;5.398;2023-09-12T01:45:35;18.20;99.90
46652;DHT22;32377;52.182;5.398;2023-09-12T01:48:02;18.30;99.90
46652;DHT22;32377;52.182;5.398;2023-09-12T01:50:30;18.20;99.90
46652;DHT22;32377;52.182;5.398;2023-09-12T01:52:56;18.20;99.90
46652;DHT22;32377;52.182;5.398;2023-09-12T01:55:22;18.20;99.90
46652;DHT22;32377;52.182;5.398;2023-09-12T01:57:50;18.20;99.90
46652;DHT22;32377;52.182;5.398;2023-09-12T02:00:18;18.20;99.90
46652;DHT22;32377;52.182;5.398;2023-09-12T02:02:45;18.20;99.90
46652;DHT22;32377;52.182;5.398;2023-09-12T02:05:15;18.20;99.90
46652;DHT22;32377;52.182;5.398;2023-09-12T02:07:44;18.20;99.90
46652;DHT22;32377;52.182;5.398;2023-09-12T02:10:10;18.20;99.90
46652;DHT22;32377;52.182;5.398;2023-09-12T02:12:36;18.20;99.90
46652;DHT22;32377;52.182;5.398;2023-09-12T02:15:02;18.10;99.90
46652;DHT22;32377;52.182;5.398;2023-09-12T02:17:27;18.10;99.90
46652;DHT22;32377;52.182;5.398;2023-09-12T02:19:53;18.10;99.90
46652;DHT22;32377;52.182;5.398;2023-09-12T02:22:18;18.00;99.90
46652;DHT22;32377;52.182;5.398;2023-09-12T02:24:44;18.10;99.90
46652;DHT22;32377;52.182;5.398;2023-09-12T02:27:10;18.00;99.90
46652;DHT22;32377;52.182;5.398;2023-09-12T02:29:36;18.00;99.90
46652;DHT22;32377;52.182;5.398;2023-09-12T02:32:03;18.00;99.90
46652;DHT22;32377;52.182;5.398;2023-09-12T02:34:28;17.90;99.90
46652;DHT22;32377;52.182;5.398;2023-09-12T02:36:54;17.90;99.90
46652;DHT22;32377;52.182;5.398;2023-09-12T02:39:19;17.90;99.90
46652;DHT22;32377;52.182;5.398;2023-09-12T02:41:45;17.90;99.90
46652;DHT22;32377;52.182;5.398;2023-09-12T02:44:10;17.80;99.90
46652;DHT22;32377;52.182;5.398;2023-09-12T02:46:37;17.80;99.90
46652;DHT22;32377;52.182;5.398;2023-09-12T02:49:02;17.80;99.90
46652;DHT22;32377;52.182;5.398;2023-09-12T02:51:28;17.80;99.90
46652;DHT22;32377;52.182;5.398;2023-09-12T02:53:54;17.80;99.90
46652;DHT22;32377;52.182;5.398;2023-09-12T02:56:20;17.80;99.90
46652;DHT22;32377;52.182;5.398;2023-09-12T02:58:46;17.70;99.90
46652;DHT22;32377;52.182;5.398;2023-09-12T03:01:19;17.80;99.90
46652;DHT22;32377;52.182;5.398;2023-09-12T03:03:51;17.70;99.90
46652;DHT22;32377;52.182;5.398;2023-09-12T03:06:16;17.80;99.90
46652;DHT22;32377;52.182;5.398;2023-09-12T03:08:44;17.80;99.90
46652;DHT22;32377;52.182;5.398;2023-09-12T03:11:10;17.80;99.90
46652;DHT22;32377;52.182;5.398;2023-09-12T03:13:37;17.80;99.90
46652;DHT22;32377;52.182;5.398;2023-09-12T03:16:03;17.80;99.90
46652;DHT22;32377;52.182;5.398;2023-09-12T03:18:29;17.70;99.90
46652;DHT22;32377;52.182;5.398;2023-09-12T03:20:54;17.80;99.90
46652;DHT22;32377;52.182;5.398;2023-09-12T03:23:21;17.80;99.90
46652;DHT22;32377;52.182;5.398;2023-09-12T03:25:46;17.70;99.90
46652;DHT22;32377;52.182;5.398;2023-09-12T03:28:12;17.70;99.90
46652;DHT22;32377;52.182;5.398;2023-09-12T03:30:38;17.70;99.90
46652;DHT22;32377;52.182;5.398;2023-09-12T03:33:05;17.60;99.90
46652;DHT22;32377;52.182;5.398;2023-09-12T03:35:32;17.70;99.90
46652;DHT22;32377;52.182;5.398;2023-09-12T03:37:57;17.60;99.90
46652;DHT22;32377;52.182;5.398;2023-09-12T03:40:23;17.60;99.90
46652;DHT22;32377;52.182;5.398;2023-09-12T03:42:49;17.60;99.90
46652;DHT22;32377;52.182;5.398;2023-09-12T03:45:15;17.60;99.90
46652;DHT22;32377;52.182;5.398;2023-09-12T03:47:40;17.70;99.90
46652;DHT22;32377;52.182;5.398;2023-09-12T03:50:06;17.60;99.90
46652;DHT22;32377;52.182;5.398;2023-09-12T03:52:32;17.70;99.90
46652;DHT22;32377;52.182;5.398;2023-09-12T03:54:57;17.80;99.90
46652;DHT22;32377;52.182;5.398;2023-09-12T03:57:26;17.90;99.90
46652;DHT22;32377;52.182;5.398;2023-09-12T03:59:51;17.90;99.90
46652;DHT22;32377;52.182;5.398;2023-09-12T04:02:18;17.90;99.90
46652;DHT22;32377;52.182;5.398;2023-09-12T04:04:44;17.90;99.90
46652;DHT22;32377;52.182;5.398;2023-09-12T04:07:09;18.00;99.90
46652;DHT22;32377;52.182;5.398;2023-09-12T04:09:35;18.00;99.90
46652;DHT22;32377;52.182;5.398;2023-09-12T04:12:00;18.00;99.90
46652;DHT22;32377;52.182;5.398;2023-09-12T04:14:27;18.00;99.90
46652;DHT22;32377;52.182;5.398;2023-09-12T04:16:52;18.00;99.90
46652;DHT22;32377;52.182;5.398;2023-09-12T04:19:18;18.00;99.90
46652;DHT22;32377;52.182;5.398;2023-09-12T04:21:43;18.00;99.90
46652;DHT22;32377;52.182;5.398;2023-09-12T04:24:09;18.00;99.90
46652;DHT22;32377;52.182;5.398;2023-09-12T04:26:35;18.00;99.90
46652;DHT22;32377;52.182;5.398;2023-09-12T04:29:00;18.00;99.90
46652;DHT22;32377;52.182;5.398;2023-09-12T04:31:26;18.10;99.90
46652;DHT22;32377;52.182;5.398;2023-09-12T04:33:52;18.10;99.90
46652;DHT22;32377;52.182;5.398;2023-09-12T04:36:18;18.10;99.90
46652;DHT22;32377;52.182;5.398;2023-09-12T04:38:44;18.00;99.90
46652;DHT22;32377;52.182;5.398;2023-09-12T04:41:12;18.00;99.90
46652;DHT22;32377;52.182;5.398;2023-09-12T04:43:40;18.00;99.90
46652;DHT22;32377;52.182;5.398;2023-09-12T04:46:06;18.00;99.90
46652;DHT22;32377;52.182;5.398;2023-09-12T04:48:32;18.00;99.90
46652;DHT22;32377;52.182;5.398;2023-09-12T04:50:57;18.00;99.90
46652;DHT22;32377;52.182;5.398;2023-09-12T04:53:23;18.00;99.90
46652;DHT22;32377;52.182;5.398;2023-09-12T04:55:52;18.00;99.90
46652;DHT22;32377;52.182;5.398;2023-09-12T04:58:18;18.00;99.90
46652;DHT22;32377;52.182;5.398;2023-09-12T05:00:45;18.00;99.90
46652;DHT22;32377;52.182;5.398;2023-09-12T05:03:10;18.00;99.90
46652;DHT22;32377;52.182;5.398;2023-09-12T05:05:36;18.00;99.90
46652;DHT22;32377;52.182;5.398;2023-09-12T05:08:02;17.90;99.90
46652;DHT22;32377;52.182;5.398;2023-09-12T05:10:27;17.90;99.90
46652;DHT22;32377;52.182;5.398;2023-09-12T05:12:53;17.90;99.90
46652;DHT22;32377;52.182;5.398;2023-09-12T05:15:19;17.90;99.90
46652;DHT22;32377;52.182;5.398;2023-09-12T05:17:44;18.00;99.90
46652;DHT22;32377;52.182;5.398;2023-09-12T05:20:10;18.00;99.90
46652;DHT22;32377;52.182;5.398;2023-09-12T05:22:36;17.90;99.90
46652;DHT22;32377;52.182;5.398;2023-09-12T05:25:01;17.90;99.90
46652;DHT22;32377;52.182;5.398;2023-09-12T05:27:27;17.90;99.90
46652;DHT22;32377;52.182;5.398;2023-09-12T05:29:52;17.90;99.90
46652;DHT22;32377;52.182;5.398;2023-09-12T05:32:18;17.90;99.90
46652;DHT22;32377;52.182;5.398;2023-09-12T05:34:44;17.90;99.90
46652;DHT22;32377;52.182;5.398;2023-09-12T05:37:10;17.80;99.90
46652;DHT22;32377;52.182;5.398;2023-09-12T05:39:36;17.90;99.90
46652;DHT22;32377;52.182;5.398;2023-09-12T05:42:02;17.80;99.90
46652;DHT22;32377;52.182;5.398;2023-09-12T05:44:27;17.90;99.90
46652;DHT22;32377;52.182;5.398;2023-09-12T05:46:53;17.90;99.90
46652;DHT22;32377;52.182;5.398;2023-09-12T05:49:19;18.00;99.90
46652;DHT22;32377;52.182;5.398;2023-09-12T05:51:45;18.10;99.90
46652;DHT22;32377;52.182;5.398;2023-09-12T05:54:10;18.10;99.90
46652;DHT22;32377;52.182;5.398;2023-09-12T05:56:39;18.20;99.90
46652;DHT22;32377;52.182;5.398;2023-09-12T05:59:05;18.30;99.90
46652;DHT22;32377;52.182;5.398;2023-09-12T06:01:30;18.40;99.90
46652;DHT22;32377;52.182;5.398;2023-09-12T06:03:56;18.40;99.90
46652;DHT22;32377;52.182;5.398;2023-09-12T06:06:22;18.40;99.90
46652;DHT22;32377;52.182;5.398;2023-09-12T06:08:48;18.50;99.90
46652;DHT22;32377;52.182;5.398;2023-09-12T06:11:14;18.60;99.90
46652;DHT22;32377;52.182;5.398;2023-09-12T06:13:39;18.60;99.90
46652;DHT22;32377;52.182;5.398;2023-09-12T06:16:05;18.60;99.90
46652;DHT22;32377;52.182;5.398;2023-09-12T06:18:32;18.60;99.90
46652;DHT22;32377;52.182;5.398;2023-09-12T06:20:58;18.70;99.90
46652;DHT22;32377;52.182;5.398;2023-09-12T06:23:24;18.70;99.90
46652;DHT22;32377;52.182;5.398;2023-09-12T06:25:50;18.70;99.90
46652;DHT22;32377;52.182;5.398;2023-09-12T06:28:29;18.70;99.90
46652;DHT22;32377;52.182;5.398;2023-09-12T06:30:56;18.70;99.90
46652;DHT22;32377;52.182;5.398;2023-09-12T06:33:25;18.80;99.90
46652;DHT22;32377;52.182;5.398;2023-09-12T06:35:52;18.70;99.90
46652;DHT22;32377;52.182;5.398;2023-09-12T06:38:19;18.70;99.90
46652;DHT22;32377;52.182;5.398;2023-09-12T06:40:45;18.80;99.90
46652;DHT22;32377;52.182;5.398;2023-09-12T06:43:12;18.90;99.90
46652;DHT22;32377;52.182;5.398;2023-09-12T06:45:40;19.00;99.90
46652;DHT22;32377;52.182;5.398;2023-09-12T06:48:05;19.00;99.90
46652;DHT22;32377;52.182;5.398;2023-09-12T06:50:31;19.10;99.90
46652;DHT22;32377;52.182;5.398;2023-09-12T06:52:57;19.10;99.90
46652;DHT22;32377;52.182;5.398;2023-09-12T06:55:22;19.20;99.90
46652;DHT22;32377;52.182;5.398;2023-09-12T06:57:48;19.20;99.90
46652;DHT22;32377;52.182;5.398;2023-09-12T07:00:14;19.30;99.90
46652;DHT22;32377;52.182;5.398;2023-09-12T07:02:40;19.30;99.90
46652;DHT22;32377;52.182;5.398;2023-09-12T07:05:06;19.40;99.90
46652;DHT22;32377;52.182;5.398;2023-09-12T07:07:33;19.40;99.90
46652;DHT22;32377;52.182;5.398;2023-09-12T07:09:58;19.50;99.90
46652;DHT22;32377;52.182;5.398;2023-09-12T07:12:25;19.50;99.90
46652;DHT22;32377;52.182;5.398;2023-09-12T07:14:51;19.50;99.90
46652;DHT22;32377;52.182;5.398;2023-09-12T07:17:17;19.40;99.90
46652;DHT22;32377;52.182;5.398;2023-09-12T07:19:43;19.40;99.90
46652;DHT22;32377;52.182;5.398;2023-09-12T07:22:09;19.50;99.90
46652;DHT22;32377;52.182;5.398;2023-09-12T07:24:34;19.40;99.90
46652;DHT22;32377;52.182;5.398;2023-09-12T07:27:00;19.40;99.90
46652;DHT22;32377;52.182;5.398;2023-09-12T07:29:25;19.30;99.90
46652;DHT22;32377;52.182;5.398;2023-09-12T07:31:54;19.30;99.90
46652;DHT22;32377;52.182;5.398;2023-09-12T07:34:21;19.20;99.90
46652;DHT22;32377;52.182;5.398;2023-09-12T07:36:46;19.20;99.90
46652;DHT22;32377;52.182;5.398;2023-09-12T07:39:12;19.10;99.90
46652;DHT22;32377;52.182;5.398;2023-09-12T07:41:38;19.20;99.90
46652;DHT22;32377;52.182;5.398;2023-09-12T07:44:04;19.20;99.90
46652;DHT22;32377;52.182;5.398;2023-09-12T07:46:30;19.30;99.90
46652;DHT22;32377;52.182;5.398;2023-09-12T07:48:56;19.40;99.90
46652;DHT22;32377;52.182;5.398;2023-09-12T07:51:23;19.70;99.90
46652;DHT22;32377;52.182;5.398;2023-09-12T07:53:49;19.90;99.90
46652;DHT22;32377;52.182;5.398;2023-09-12T07:56:15;20.10;99.90
46652;DHT22;32377;52.182;5.398;2023-09-12T07:58:41;20.40;99.90
46652;DHT22;32377;52.182;5.398;2023-09-12T08:01:07;20.50;99.90
46652;DHT22;32377;52.182;5.398;2023-09-12T08:03:38;20.60;99.90
46652;DHT22;32377;52.182;5.398;2023-09-12T08:06:05;20.80;99.90
46652;DHT22;32377;52.182;5.398;2023-09-12T08:08:31;20.90;99.90
46652;DHT22;32377;52.182;5.398;2023-09-12T08:10:57;21.10;99.90
46652;DHT22;32377;52.182;5.398;2023-09-12T08:13:26;21.40;99.90
46652;DHT22;32377;52.182;5.398;2023-09-12T08:15:53;21.60;95.60
46652;DHT22;32377;52.182;5.398;2023-09-12T08:18:18;21.80;80.10
46652;DHT22;32377;52.182;5.398;2023-09-12T08:20:44;22.20;62.30
46652;DHT22;32377;52.182;5.398;2023-09-12T08:23:10;22.20;25.60
46652;DHT22;32377;52.182;5.398;2023-09-12T08:25:35;22.50;22.30
46652;DHT22;32377;52.182;5.398;2023-09-12T08:28:01;22.60;14.70
46652;DHT22;32377;52.182;5.398;2023-09-12T08:30:27;22.60;5.00
46652;DHT22;32377;52.182;5.398;2023-09-12T08:32:55;22.60;1.30
46652;DHT22;32377;52.182;5.398;2023-09-12T08:35:21;22.40;2.40
46652;DHT22;32377;52.182;5.398;2023-09-12T08:37:46;22.50;3.90
46652;DHT22;32377;52.182;5.398;2023-09-12T08:40:13;22.50;3.80
46652;DHT22;32377;52.182;5.398;2023-09-12T08:42:43;22.50;3.30
46652;DHT22;32377;52.182;5.398;2023-09-12T08:45:19;22.60;2.30
46652;DHT22;32377;52.182;5.398;2023-09-12T08:47:51;22.60;1.00
46652;DHT22;32377;52.182;5.398;2023-09-12T08:50:17;22.70;1.00
46652;DHT22;32377;52.182;5.398;2023-09-12T08:52:44;22.70;1.00
46652;DHT22;32377;52.182;5.398;2023-09-12T08:55:11;22.90;1.00
46652;DHT22;32377;52.182;5.398;2023-09-12T08:57:49;22.90;1.00
46652;DHT22;32377;52.182;5.398;2023-09-12T09:00:15;23.00;1.00
46652;DHT22;32377;52.182;5.398;2023-09-12T09:02:43;22.90;1.00
46652;DHT22;32377;52.182;5.398;2023-09-12T09:05:11;22.90;1.00
46652;DHT22;32377;52.182;5.398;2023-09-12T09:07:38;22.70;1.00
46652;DHT22;32377;52.182;5.398;2023-09-12T09:10:05;22.60;1.00
46652;DHT22;32377;52.182;5.398;2023-09-12T09:12:32;22.40;1.00
46652;DHT22;32377;52.182;5.398;2023-09-12T09:14:58;22.60;1.00
46652;DHT22;32377;52.182;5.398;2023-09-12T09:17:24;22.80;1.20
46652;DHT22;32377;52.182;5.398;2023-09-12T09:19:49;23.10;1.00
46652;DHT22;32377;52.182;5.398;2023-09-12T09:22:15;23.10;1.00
46652;DHT22;32377;52.182;5.398;2023-09-12T09:24:41;23.00;1.00
46652;DHT22;32377;52.182;5.398;2023-09-12T09:27:07;23.00;1.00
46652;DHT22;32377;52.182;5.398;2023-09-12T09:29:45;22.80;1.00
46652;DHT22;32377;52.182;5.398;2023-09-12T09:32:18;22.70;1.00
46652;DHT22;32377;52.182;5.398;2023-09-12T09:34:44;22.80;1.00
46652;DHT22;32377;52.182;5.398;2023-09-12T09:37:09;22.90;1.00
46652;DHT22;32377;52.182;5.398;2023-09-12T09:39:35;22.90;1.00
46652;DHT22;32377;52.182;5.398;2023-09-12T09:42:01;22.90;1.00
46652;DHT22;32377;52.182;5.398;2023-09-12T09:44:27;22.90;1.00
46652;DHT22;32377;52.182;5.398;2023-09-12T09:47:02;22.90;1.00
46652;DHT22;32377;52.182;5.398;2023-09-12T09:49:31;23.10;1.00
46652;DHT22;32377;52.182;5.398;2023-09-12T09:51:56;23.10;1.00
46652;DHT22;32377;52.182;5.398;2023-09-12T09:54:24;23.20;1.00
46652;DHT22;32377;52.182;5.398;2023-09-12T09:56:54;23.40;1.00
46652;DHT22;32377;52.182;5.398;2023-09-12T09:59:24;23.30;1.00
46652;DHT22;32377;52.182;5.398;2023-09-12T10:01:58;23.70;1.00
46652;DHT22;32377;52.182;5.398;2023-09-12T10:04:27;23.80;1.00
46652;DHT22;32377;52.182;5.398;2023-09-12T10:06:56;23.70;1.00
46652;DHT22;32377;52.182;5.398;2023-09-12T10:09:23;23.50;1.00
46652;DHT22;32377;52.182;5.398;2023-09-12T10:11:51;23.50;1.00
46652;DHT22;32377;52.182;5.398;2023-09-12T10:14:19;23.50;1.00
46652;DHT22;32377;52.182;5.398;2023-09-12T10:16:47;23.60;1.00
46652;DHT22;32377;52.182;5.398;2023-09-12T10:19:16;23.80;1.00
46652;DHT22;32377;52.182;5.398;2023-09-12T10:24:33;24.20;1.00
46652;DHT22;32377;52.182;5.398;2023-09-12T10:27:01;24.50;1.00
46652;DHT22;32377;52.182;5.398;2023-09-12T10:29:27;24.60;1.00
46652;DHT22;32377;52.182;5.398;2023-09-12T10:31:53;25.00;1.00
46652;DHT22;32377;52.182;5.398;2023-09-12T10:34:20;25.10;1.00
46652;DHT22;32377;52.182;5.398;2023-09-12T10:36:47;25.00;1.00
46652;DHT22;32377;52.182;5.398;2023-09-12T10:39:14;25.00;1.00
46652;DHT22;32377;52.182;5.398;2023-09-12T10:41:40;24.80;1.00
46652;DHT22;32377;52.182;5.398;2023-09-12T10:44:10;24.60;1.00
46652;DHT22;32377;52.182;5.398;2023-09-12T10:46:38;24.40;1.00
46652;DHT22;32377;52.182;5.398;2023-09-12T10:49:08;24.40;1.00
46652;DHT22;32377;52.182;5.398;2023-09-12T10:51:41;24.30;1.00
46652;DHT22;32377;52.182;5.398;2023-09-12T10:54:09;24.20;1.00
46652;DHT22;32377;52.182;5.398;2023-09-12T10:56:37;24.40;1.00
46652;DHT22;32377;52.182;5.398;2023-09-12T11:01:33;24.90;1.00
46652;DHT22;32377;52.182;5.398;2023-09-12T11:04:05;25.00;1.00
46652;DHT22;32377;52.182;5.398;2023-09-12T11:06:47;25.10;1.00
46652;DHT22;32377;52.182;5.398;2023-09-12T11:09:31;25.00;1.00
46652;DHT22;32377;52.182;5.398;2023-09-12T11:12:02;24.90;1.00
46652;DHT22;32377;52.182;5.398;2023-09-12T11:14:28;24.80;1.00
46652;DHT22;32377;52.182;5.398;2023-09-12T11:19:46;24.40;1.00
46652;DHT22;32377;52.182;5.398;2023-09-12T11:22:33;24.60;1.00
46652;DHT22;32377;52.182;5.398;2023-09-12T11:25:03;24.50;1.00
46652;DHT22;32377;52.182;5.398;2023-09-12T11:27:45;24.60;1.00
46652;DHT22;32377;52.182;5.398;2023-09-12T11:30:26;24.50;1.00
46652;DHT22;32377;52.182;5.398;2023-09-12T11:32:57;24.60;1.00
46652;DHT22;32377;52.182;5.398;2023-09-12T11:35:24;24.60;1.00
46652;DHT22;32377;52.182;5.398;2023-09-12T11:37:59;24.50;1.00
46652;DHT22;32377;52.182;5.398;2023-09-12T11:43:00;24.20;1.00
46652;DHT22;32377;52.182;5.398;2023-09-12T11:45:27;24.20;1.00
46652;DHT22;32377;52.182;5.398;2023-09-12T11:47:54;24.10;1.00
46652;DHT22;32377;52.182;5.398;2023-09-12T11:50:31;24.20;1.00
46652;DHT22;32377;52.182;5.398;2023-09-12T11:55:44;24.50;1.00
46652;DHT22;32377;52.182;5.398;2023-09-12T11:58:12;24.50;1.00
46652;DHT22;32377;52.182;5.398;2023-09-12T12:00:47;24.60;1.00
46652;DHT22;32377;52.182;5.398;2023-09-12T12:03:14;24.70;1.00
46652;DHT22;32377;52.182;5.398;2023-09-12T12:05:39;24.80;1.00
46652;DHT22;32377;52.182;5.398;2023-09-12T12:08:10;25.00;1.00
46652;DHT22;32377;52.182;5.398;2023-09-12T12:10:36;25.30;1.00
46652;DHT22;32377;52.182;5.398;2023-09-12T12:13:04;25.60;1.00
46652;DHT22;32377;52.182;5.398;2023-09-12T12:15:30;25.90;1.00
46652;DHT22;32377;52.182;5.398;2023-09-12T12:17:56;26.20;1.00
46652;DHT22;32377;52.182;5.398;2023-09-12T12:20:22;26.40;1.00
46652;DHT22;32377;52.182;5.398;2023-09-12T12:22:49;26.60;1.00
46652;DHT22;32377;52.182;5.398;2023-09-12T12:25:17;26.60;1.00
46652;DHT22;32377;52.182;5.398;2023-09-12T12:27:42;26.90;1.00
46652;DHT22;32377;52.182;5.398;2023-09-12T12:30:11;26.90;1.00
46652;DHT22;32377;52.182;5.398;2023-09-12T12:32:40;27.20;1.00
46652;DHT22;32377;52.182;5.398;2023-09-12T12:35:07;27.50;1.00
46652;DHT22;32377;52.182;5.398;2023-09-12T12:37:33;27.50;1.00
46652;DHT22;32377;52.182;5.398;2023-09-12T12:40:00;27.40;1.00
46652;DHT22;32377;52.182;5.398;2023-09-12T12:42:33;27.20;1.00
46652;DHT22;32377;52.182;5.398;2023-09-12T12:44:59;27.10;1.00
46652;DHT22;32377;52.182;5.398;2023-09-12T12:47:25;27.00;1.00
46652;DHT22;32377;52.182;5.398;2023-09-12T12:49:54;27.00;1.00
46652;DHT22;32377;52.182;5.398;2023-09-12T12:52:25;26.70;1.00
46652;DHT22;32377;52.182;5.398;2023-09-12T12:54:51;26.40;1.00
46652;DHT22;32377;52.182;5.398;2023-09-12T12:57:20;26.20;1.00
46652;DHT22;32377;52.182;5.398;2023-09-12T12:59:49;25.90;1.00
46652;DHT22;32377;52.182;5.398;2023-09-12T13:02:16;25.60;1.00
46652;DHT22;32377;52.182;5.398;2023-09-12T13:04:42;25.40;1.00
46652;DHT22;32377;52.182;5.398;2023-09-12T13:07:07;25.20;1.00
46652;DHT22;32377;52.182;5.398;2023-09-12T13:09:33;25.10;1.00
46652;DHT22;32377;52.182;5.398;2023-09-12T13:11:59;25.00;1.00
46652;DHT22;32377;52.182;5.398;2023-09-12T13:14:25;24.90;1.00
46652;DHT22;32377;52.182;5.398;2023-09-12T13:16:57;24.80;1.00
46652;DHT22;32377;52.182;5.398;2023-09-12T13:19:24;24.70;1.00
46652;DHT22;32377;52.182;5.398;2023-09-12T13:21:50;24.50;1.00
46652;DHT22;32377;52.182;5.398;2023-09-12T13:24:15;24.30;1.00
46652;DHT22;32377;52.182;5.398;2023-09-12T13:26:41;24.10;1.00
46652;DHT22;32377;52.182;5.398;2023-09-12T13:29:07;24.00;1.00
46652;DHT22;32377;52.182;5.398;2023-09-12T13:31:32;23.80;1.00
46652;DHT22;32377;52.182;5.398;2023-09-12T13:33:58;23.80;1.00
46652;DHT22;32377;52.182;5.398;2023-09-12T13:36:24;23.60;1.00
46652;DHT22;32377;52.182;5.398;2023-09-12T13:38:49;23.60;1.00
46652;DHT22;32377;52.182;5.398;2023-09-12T13:41:17;23.50;1.00
46652;DHT22;32377;52.182;5.398;2023-09-12T13:43:43;23.40;1.00
46652;DHT22;32377;52.182;5.398;2023-09-12T13:46:12;23.30;1.00
46652;DHT22;32377;52.182;5.398;2023-09-12T13:48:37;23.20;1.00
46652;DHT22;32377;52.182;5.398;2023-09-12T13:51:03;23.40;1.00
46652;DHT22;32377;52.182;5.398;2023-09-12T13:53:29;23.50;1.00
46652;DHT22;32377;52.182;5.398;2023-09-12T13:55:54;23.70;1.00
46652;DHT22;32377;52.182;5.398;2023-09-12T13:58:22;24.00;1.00
46652;DHT22;32377;52.182;5.398;2023-09-12T14:00:48;24.20;1.00
46652;DHT22;32377;52.182;5.398;2023-09-12T14:03:14;24.20;1.00
46652;DHT22;32377;52.182;5.398;2023-09-12T14:05:40;24.10;1.00
46652;DHT22;32377;52.182;5.398;2023-09-12T14:08:06;24.20;1.00
46652;DHT22;32377;52.182;5.398;2023-09-12T14:10:32;24.20;1.00
46652;DHT22;32377;52.182;5.398;2023-09-12T14:12:57;24.20;1.00
46652;DHT22;32377;52.182;5.398;2023-09-12T14:15:23;24.20;1.00
46652;DHT22;32377;52.182;5.398;2023-09-12T14:17:48;24.30;1.00
46652;DHT22;32377;52.182;5.398;2023-09-12T14:20:14;24.30;1.00
46652;DHT22;32377;52.182;5.398;2023-09-12T14:22:43;24.10;1.00
46652;DHT22;32377;52.182;5.398;2023-09-12T14:25:09;24.10;1.00
46652;DHT22;32377;52.182;5.398;2023-09-12T14:27:43;23.90;1.00
46652;DHT22;32377;52.182;5.398;2023-09-12T14:30:10;23.80;1.00
46652;DHT22;32377;52.182;5.398;2023-09-12T14:32:37;23.80;1.00
46652;DHT22;32377;52.182;5.398;2023-09-12T14:35:03;23.80;1.00
46652;DHT22;32377;52.182;5.398;2023-09-12T14:37:29;23.80;1.00
46652;DHT22;32377;52.182;5.398;2023-09-12T14:39:55;23.70;1.00
46652;DHT22;32377;52.182;5.398;2023-09-12T14:42:21;23.60;1.00
46652;DHT22;32377;52.182;5.398;2023-09-12T14:44:47;23.70;1.00
46652;DHT22;32377;52.182;5.398;2023-09-12T14:47:13;23.70;1.00
46652;DHT22;32377;52.182;5.398;2023-09-12T14:49:38;23.80;1.00
46652;DHT22;32377;52.182;5.398;2023-09-12T14:52:04;23.90;1.00
46652;DHT22;32377;52.182;5.398;2023-09-12T14:54:30;24.10;1.00
46652;DHT22;32377;52.182;5.398;2023-09-12T14:56:56;24.10;1.00
46652;DHT22;32377;52.182;5.398;2023-09-12T14:59:21;24.10;1.00
46652;DHT22;32377;52.182;5.398;2023-09-12T15:01:47;24.00;1.00
46652;DHT22;32377;52.182;5.398;2023-09-12T15:04:13;24.10;1.00
46652;DHT22;32377;52.182;5.398;2023-09-12T15:06:39;24.00;1.00
46652;DHT22;32377;52.182;5.398;2023-09-12T15:09:05;24.10;1.00
46652;DHT22;32377;52.182;5.398;2023-09-12T15:11:31;24.20;1.00
46652;DHT22;32377;52.182;5.398;2023-09-12T15:13:57;24.10;1.00
46652;DHT22;32377;52.182;5.398;2023-09-12T15:16:24;24.10;1.00
46652;DHT22;32377;52.182;5.398;2023-09-12T15:18:51;24.10;1.00
46652;DHT22;32377;52.182;5.398;2023-09-12T15:21:17;24.00;1.00
46652;DHT22;32377;52.182;5.398;2023-09-12T15:23:43;23.90;1.00
46652;DHT22;32377;52.182;5.398;2023-09-12T15:26:08;23.90;1.00
46652;DHT22;32377;52.182;5.398;2023-09-12T15:28:34;23.90;1.00
46652;DHT22;32377;52.182;5.398;2023-09-12T15:31:00;23.90;1.00
46652;DHT22;32377;52.182;5.398;2023-09-12T15:33:28;23.90;1.00
46652;DHT22;32377;52.182;5.398;2023-09-12T15:35:54;23.80;1.00
46652;DHT22;32377;52.182;5.398;2023-09-12T15:38:20;23.80;1.00
46652;DHT22;32377;52.182;5.398;2023-09-12T15:40:45;23.90;1.00
46652;DHT22;32377;52.182;5.398;2023-09-12T15:43:11;24.00;1.00
46652;DHT22;32377;52.182;5.398;2023-09-12T15:45:36;24.10;1.00
46652;DHT22;32377;52.182;5.398;2023-09-12T15:48:02;24.10;1.00
46652;DHT22;32377;52.182;5.398;2023-09-12T15:50:28;24.10;1.00
46652;DHT22;32377;52.182;5.398;2023-09-12T15:52:53;24.10;1.00